sensor_id;sensor_type;location;lat;lon;timestamp;temperature;humidity
51950;DHT22;37974;53.218;6.640;2023-03-07T00:00:04;2.90;99.90
51950;DHT22;37974;53.218;6.640;2023-03-07T00:02:30;3.00;99.90
51950;DHT22;37974;53.218;6.640;2023-03-07T00:04:56;3.00;99.90
51950;DHT22;37974;53.218;6.640;2023-03-07T00:07:21;3.30;99.90
51950;DHT22;37974;53.218;6.640;2023-03-07T00:09:47;3.40;99.90
51950;DHT22;37974;53.218;6.640;2023-03-07T00:12:13;3.00;99.90
51950;DHT22;37974;53.218;6.640;2023-03-07T00:14:38;3.10;99.90
51950;DHT22;37974;53.218;6.640;2023-03-07T00:17:04;3.40;99.90
51950;DHT22;37974;53.218;6.640;2023-03-07T00:19:30;3.10;99.90
51950;DHT22;37974;53.218;6.640;2023-03-07T00:21:55;3.30;99.90
51950;DHT22;37974;53.218;6.640;2023-03-07T00:24:21;3.20;99.90
51950;DHT22;37974;53.218;6.640;2023-03-07T00:26:47;3.00;99.90
51950;DHT22;37974;53.218;6.640;2023-03-07T00:29:12;3.40;99.90
51950;DHT22;37974;53.218;6.640;2023-03-07T00:31:38;3.60;99.90
51950;DHT22;37974;53.218;6.640;2023-03-07T00:34:04;3.40;99.90
51950;DHT22;37974;53.218;6.640;2023-03-07T00:36:30;3.10;99.90
51950;DHT22;37974;53.218;6.640;2023-03-07T00:38:56;2.80;99.90
51950;DHT22;37974;53.218;6.640;2023-03-07T00:41:25;2.80;99.90
51950;DHT22;37974;53.218;6.640;2023-03-07T00:43:52;3.50;99.90
51950;DHT22;37974;53.218;6.640;2023-03-07T00:46:19;3.10;99.90
51950;DHT22;37974;53.218;6.640;2023-03-07T00:48:46;2.70;99.90
51950;DHT22;37974;53.218;6.640;2023-03-07T00:51:14;2.70;99.90
51950;DHT22;37974;53.218;6.640;2023-03-07T00:53:40;2.70;99.90
51950;DHT22;37974;53.218;6.640;2023-03-07T00:56:12;2.70;99.90
51950;DHT22;37974;53.218;6.640;2023-03-07T00:58:38;2.80;99.90
51950;DHT22;37974;53.218;6.640;2023-03-07T01:01:05;3.40;99.90
51950;DHT22;37974;53.218;6.640;2023-03-07T01:03:31;3.60;99.90
51950;DHT22;37974;53.218;6.640;2023-03-07T01:06:00;2.90;99.90
51950;DHT22;37974;53.218;6.640;2023-03-07T01:08:26;3.10;99.90
51950;DHT22;37974;53.218;6.640;2023-03-07T01:10:51;3.70;99.90
51950;DHT22;37974;53.218;6.640;2023-03-07T01:13:22;3.40;99.90
51950;DHT22;37974;53.218;6.640;2023-03-07T01:15:48;3.10;99.90
51950;DHT22;37974;53.218;6.640;2023-03-07T01:18:13;3.20;99.90
51950;DHT22;37974;53.218;6.640;2023-03-07T01:20:40;3.70;99.90
51950;DHT22;37974;53.218;6.640;2023-03-07T01:23:06;3.90;99.90
51950;DHT22;37974;53.218;6.640;2023-03-07T01:25:37;3.90;99.90
51950;DHT22;37974;53.218;6.640;2023-03-07T01:28:03;3.30;99.90
51950;DHT22;37974;53.218;6.640;2023-03-07T01:30:29;3.30;99.90
51950;DHT22;37974;53.218;6.640;2023-03-07T01:32:56;3.80;99.90
51950;DHT22;37974;53.218;6.640;2023-03-07T01:35:22;3.30;99.90
51950;DHT22;37974;53.218;6.640;2023-03-07T01:37:49;3.70;99.90
51950;DHT22;37974;53.218;6.640;2023-03-07T01:40:15;3.30;99.90
51950;DHT22;37974;53.218;6.640;2023-03-07T01:42:41;3.20;99.90
51950;DHT22;37974;53.218;6.640;2023-03-07T01:47:58;3.20;99.90
51950;DHT22;37974;53.218;6.640;2023-03-07T01:50:24;3.80;99.90
51950;DHT22;37974;53.218;6.640;2023-03-07T01:52:55;3.10;99.90
51950;DHT22;37974;53.218;6.640;2023-03-07T01:55:27;3.10;99.90
51950;DHT22;37974;53.218;6.640;2023-03-07T01:57:54;3.00;99.90
51950;DHT22;37974;53.218;6.640;2023-03-07T02:00:22;3.20;99.90
51950;DHT22;37974;53.218;6.640;2023-03-07T02:03:20;2.90;99.90
51950;DHT22;37974;53.218;6.640;2023-03-07T02:05:56;3.50;99.90
51950;DHT22;37974;53.218;6.640;2023-03-07T02:08:25;3.20;99.90
51950;DHT22;37974;53.218;6.640;2023-03-07T02:10:52;2.80;99.90
51950;DHT22;37974;53.218;6.640;2023-03-07T02:13:18;3.20;99.90
51950;DHT22;37974;53.218;6.640;2023-03-07T02:15:44;2.60;99.90
51950;DHT22;37974;53.218;6.640;2023-03-07T02:18:13;3.10;99.90
51950;DHT22;37974;53.218;6.640;2023-03-07T02:26:20;2.40;99.90
51950;DHT22;37974;53.218;6.640;2023-03-07T02:28:47;2.50;99.90
51950;DHT22;37974;53.218;6.640;2023-03-07T02:31:13;2.90;99.90
51950;DHT22;37974;53.218;6.640;2023-03-07T02:33:39;3.50;99.90
51950;DHT22;37974;53.218;6.640;2023-03-07T02:36:08;2.70;99.90
51950;DHT22;37974;53.218;6.640;2023-03-07T02:38:36;2.60;99.90
51950;DHT22;37974;53.218;6.640;2023-03-07T02:41:05;3.10;99.90
51950;DHT22;37974;53.218;6.640;2023-03-07T02:43:31;3.20;99.90
51950;DHT22;37974;53.218;6.640;2023-03-07T02:45:57;3.00;99.90
51950;DHT22;37974;53.218;6.640;2023-03-07T02:48:22;3.30;99.90
51950;DHT22;37974;53.218;6.640;2023-03-07T02:50:48;2.50;99.90
51950;DHT22;37974;53.218;6.640;2023-03-07T02:53:14;2.40;99.90
51950;DHT22;37974;53.218;6.640;2023-03-07T02:55:40;2.60;99.90
51950;DHT22;37974;53.218;6.640;2023-03-07T02:58:06;3.50;99.90
51950;DHT22;37974;53.218;6.640;2023-03-07T03:00:32;2.70;99.90
51950;DHT22;37974;53.218;6.640;2023-03-07T03:02:58;2.30;99.90
51950;DHT22;37974;53.218;6.640;2023-03-07T03:05:24;3.20;99.90
51950;DHT22;37974;53.218;6.640;2023-03-07T03:07:49;2.40;99.90
51950;DHT22;37974;53.218;6.640;2023-03-07T03:10:16;2.40;99.90
51950;DHT22;37974;53.218;6.640;2023-03-07T03:12:42;2.30;99.90
51950;DHT22;37974;53.218;6.640;2023-03-07T03:15:08;3.10;99.90
51950;DHT22;37974;53.218;6.640;2023-03-07T03:17:34;2.30;99.90
51950;DHT22;37974;53.218;6.640;2023-03-07T03:20:00;2.90;99.90
51950;DHT22;37974;53.218;6.640;2023-03-07T03:22:26;2.30;99.90
51950;DHT22;37974;53.218;6.640;2023-03-07T03:24:51;2.70;99.90
51950;DHT22;37974;53.218;6.640;2023-03-07T03:27:17;2.40;99.90
51950;DHT22;37974;53.218;6.640;2023-03-07T03:29:43;2.30;99.90
51950;DHT22;37974;53.218;6.640;2023-03-07T03:32:08;2.30;99.90
51950;DHT22;37974;53.218;6.640;2023-03-07T03:34:34;2.50;99.90
51950;DHT22;37974;53.218;6.640;2023-03-07T03:37:00;2.70;99.90
51950;DHT22;37974;53.218;6.640;2023-03-07T03:39:25;2.70;99.90
51950;DHT22;37974;53.218;6.640;2023-03-07T03:41:51;2.30;99.90
51950;DHT22;37974;53.218;6.640;2023-03-07T03:44:17;2.60;99.90
51950;DHT22;37974;53.218;6.640;2023-03-07T03:46:43;2.30;99.90
51950;DHT22;37974;53.218;6.640;2023-03-07T03:49:11;2.50;99.90
51950;DHT22;37974;53.218;6.640;2023-03-07T03:51:37;2.90;99.90
51950;DHT22;37974;53.218;6.640;2023-03-07T03:54:03;2.80;99.90
51950;DHT22;37974;53.218;6.640;2023-03-07T03:56:29;2.20;99.90
51950;DHT22;37974;53.218;6.640;2023-03-07T03:58:56;3.00;99.90
51950;DHT22;37974;53.218;6.640;2023-03-07T04:01:25;2.40;99.90
51950;DHT22;37974;53.218;6.640;2023-03-07T04:03:52;3.00;99.90
51950;DHT22;37974;53.218;6.640;2023-03-07T04:06:21;2.10;99.90
51950;DHT22;37974;53.218;6.640;2023-03-07T04:08:48;2.10;99.90
51950;DHT22;37974;53.218;6.640;2023-03-07T04:11:14;3.00;99.90
51950;DHT22;37974;53.218;6.640;2023-03-07T04:13:40;2.90;99.90
51950;DHT22;37974;53.218;6.640;2023-03-07T04:16:06;3.10;99.90
51950;DHT22;37974;53.218;6.640;2023-03-07T04:18:33;2.10;99.90
51950;DHT22;37974;53.218;6.640;2023-03-07T04:20:59;2.10;99.90
51950;DHT22;37974;53.218;6.640;2023-03-07T04:23:24;2.10;99.90
51950;DHT22;37974;53.218;6.640;2023-03-07T04:25:53;3.30;99.90
51950;DHT22;37974;53.218;6.640;2023-03-07T04:28:27;2.10;99.90
51950;DHT22;37974;53.218;6.640;2023-03-07T04:30:53;2.40;99.90
51950;DHT22;37974;53.218;6.640;2023-03-07T04:33:21;2.80;99.90
51950;DHT22;37974;53.218;6.640;2023-03-07T04:35:46;2.80;99.90
51950;DHT22;37974;53.218;6.640;2023-03-07T04:38:13;2.60;99.90
51950;DHT22;37974;53.218;6.640;2023-03-07T04:40:40;2.60;99.90
51950;DHT22;37974;53.218;6.640;2023-03-07T04:43:06;2.80;99.90
51950;DHT22;37974;53.218;6.640;2023-03-07T04:45:34;2.60;99.90
51950;DHT22;37974;53.218;6.640;2023-03-07T04:48:01;2.30;99.90
51950;DHT22;37974;53.218;6.640;2023-03-07T04:50:27;2.20;99.90
51950;DHT22;37974;53.218;6.640;2023-03-07T04:52:53;2.20;99.90
51950;DHT22;37974;53.218;6.640;2023-03-07T04:55:18;2.80;99.90
51950;DHT22;37974;53.218;6.640;2023-03-07T04:57:44;2.90;99.90
51950;DHT22;37974;53.218;6.640;2023-03-07T05:00:11;2.80;99.90
51950;DHT22;37974;53.218;6.640;2023-03-07T05:02:37;2.30;99.90
51950;DHT22;37974;53.218;6.640;2023-03-07T05:05:04;3.10;99.90
51950;DHT22;37974;53.218;6.640;2023-03-07T05:07:30;2.30;99.90
51950;DHT22;37974;53.218;6.640;2023-03-07T05:09:56;2.50;99.90
51950;DHT22;37974;53.218;6.640;2023-03-07T05:12:23;2.40;99.90
51950;DHT22;37974;53.218;6.640;2023-03-07T05:14:49;2.50;99.90
51950;DHT22;37974;53.218;6.640;2023-03-07T05:17:15;2.70;99.90
51950;DHT22;37974;53.218;6.640;2023-03-07T05:19:42;3.20;99.90
51950;DHT22;37974;53.218;6.640;2023-03-07T05:22:08;2.60;99.90
51950;DHT22;37974;53.218;6.640;2023-03-07T05:24:34;2.60;99.90
51950;DHT22;37974;53.218;6.640;2023-03-07T05:27:00;2.90;99.90
51950;DHT22;37974;53.218;6.640;2023-03-07T05:29:26;2.90;99.90
51950;DHT22;37974;53.218;6.640;2023-03-07T05:31:52;2.50;99.90
51950;DHT22;37974;53.218;6.640;2023-03-07T05:34:17;3.00;99.90
51950;DHT22;37974;53.218;6.640;2023-03-07T05:36:43;3.00;99.90
51950;DHT22;37974;53.218;6.640;2023-03-07T05:39:09;2.50;99.90
51950;DHT22;37974;53.218;6.640;2023-03-07T05:41:35;2.80;99.90
51950;DHT22;37974;53.218;6.640;2023-03-07T05:44:00;2.50;99.90
51950;DHT22;37974;53.218;6.640;2023-03-07T05:46:27;2.90;99.90
51950;DHT22;37974;53.218;6.640;2023-03-07T05:48:53;2.50;99.90
51950;DHT22;37974;53.218;6.640;2023-03-07T05:51:19;2.50;99.90
51950;DHT22;37974;53.218;6.640;2023-03-07T05:53:45;2.40;99.90
51950;DHT22;37974;53.218;6.640;2023-03-07T05:56:11;2.50;99.90
51950;DHT22;37974;53.218;6.640;2023-03-07T05:58:37;2.40;99.90
51950;DHT22;37974;53.218;6.640;2023-03-07T06:01:04;2.40;99.90
51950;DHT22;37974;53.218;6.640;2023-03-07T06:03:30;2.30;99.90
51950;DHT22;37974;53.218;6.640;2023-03-07T06:05:56;2.40;99.90
51950;DHT22;37974;53.218;6.640;2023-03-07T06:08:22;2.40;99.90
51950;DHT22;37974;53.218;6.640;2023-03-07T06:10:50;2.40;99.90
51950;DHT22;37974;53.218;6.640;2023-03-07T06:13:19;2.40;99.90
51950;DHT22;37974;53.218;6.640;2023-03-07T06:15:48;2.90;99.90
51950;DHT22;37974;53.218;6.640;2023-03-07T06:18:14;2.40;99.90
51950;DHT22;37974;53.218;6.640;2023-03-07T06:20:40;2.40;99.90
51950;DHT22;37974;53.218;6.640;2023-03-07T06:23:06;3.10;99.90
51950;DHT22;37974;53.218;6.640;2023-03-07T06:25:31;2.30;99.90
51950;DHT22;37974;53.218;6.640;2023-03-07T06:27:57;2.70;99.90
51950;DHT22;37974;53.218;6.640;2023-03-07T06:30:26;2.20;99.90
51950;DHT22;37974;53.218;6.640;2023-03-07T06:32:51;2.20;99.90
51950;DHT22;37974;53.218;6.640;2023-03-07T06:35:17;2.40;99.90
51950;DHT22;37974;53.218;6.640;2023-03-07T06:37:43;2.90;99.90
51950;DHT22;37974;53.218;6.640;2023-03-07T06:40:09;2.30;99.90
51950;DHT22;37974;53.218;6.640;2023-03-07T06:42:35;2.40;99.90
51950;DHT22;37974;53.218;6.640;2023-03-07T06:45:01;2.40;99.90
51950;DHT22;37974;53.218;6.640;2023-03-07T06:47:27;2.40;99.90
51950;DHT22;37974;53.218;6.640;2023-03-07T06:49:53;3.20;99.90
51950;DHT22;37974;53.218;6.640;2023-03-07T06:52:20;2.60;99.90
51950;DHT22;37974;53.218;6.640;2023-03-07T06:54:46;2.90;99.90
51950;DHT22;37974;53.218;6.640;2023-03-07T06:57:12;3.00;99.90
51950;DHT22;37974;53.218;6.640;2023-03-07T06:59:38;3.20;99.90
51950;DHT22;37974;53.218;6.640;2023-03-07T07:02:04;3.00;99.90
51950;DHT22;37974;53.218;6.640;2023-03-07T07:04:29;2.50;99.90
51950;DHT22;37974;53.218;6.640;2023-03-07T07:06:55;2.80;99.90
51950;DHT22;37974;53.218;6.640;2023-03-07T07:09:21;3.30;99.90
51950;DHT22;37974;53.218;6.640;2023-03-07T07:11:46;3.30;99.90
51950;DHT22;37974;53.218;6.640;2023-03-07T07:14:12;2.80;99.90
51950;DHT22;37974;53.218;6.640;2023-03-07T07:16:39;2.60;99.90
51950;DHT22;37974;53.218;6.640;2023-03-07T07:19:04;2.60;99.90
51950;DHT22;37974;53.218;6.640;2023-03-07T07:21:30;2.50;99.90
51950;DHT22;37974;53.218;6.640;2023-03-07T07:23:56;3.30;99.90
51950;DHT22;37974;53.218;6.640;2023-03-07T07:26:22;2.60;99.90
51950;DHT22;37974;53.218;6.640;2023-03-07T07:28:49;2.60;99.90
51950;DHT22;37974;53.218;6.640;2023-03-07T07:31:15;3.40;99.90
51950;DHT22;37974;53.218;6.640;2023-03-07T07:33:41;3.20;99.90
51950;DHT22;37974;53.218;6.640;2023-03-07T07:36:07;2.80;99.90
51950;DHT22;37974;53.218;6.640;2023-03-07T07:38:34;2.70;99.90
51950;DHT22;37974;53.218;6.640;2023-03-07T07:41:00;2.80;99.90
51950;DHT22;37974;53.218;6.640;2023-03-07T07:43:27;2.70;99.90
51950;DHT22;37974;53.218;6.640;2023-03-07T07:45:53;3.30;99.90
51950;DHT22;37974;53.218;6.640;2023-03-07T07:48:19;2.70;99.90
51950;DHT22;37974;53.218;6.640;2023-03-07T07:50:44;3.50;99.90
51950;DHT22;37974;53.218;6.640;2023-03-07T07:53:11;2.90;99.90
51950;DHT22;37974;53.218;6.640;2023-03-07T07:55:37;2.80;99.90
51950;DHT22;37974;53.218;6.640;2023-03-07T07:58:03;2.80;99.90
51950;DHT22;37974;53.218;6.640;2023-03-07T08:00:29;3.30;99.90
51950;DHT22;37974;53.218;6.640;2023-03-07T08:02:55;2.80;99.90
51950;DHT22;37974;53.218;6.640;2023-03-07T08:05:22;3.10;99.90
51950;DHT22;37974;53.218;6.640;2023-03-07T08:07:48;2.90;99.90
51950;DHT22;37974;53.218;6.640;2023-03-07T08:10:16;2.90;99.90
51950;DHT22;37974;53.218;6.640;2023-03-07T08:12:44;3.00;99.90
51950;DHT22;37974;53.218;6.640;2023-03-07T08:15:10;3.60;99.90
51950;DHT22;37974;53.218;6.640;2023-03-07T08:17:36;3.00;99.90
51950;DHT22;37974;53.218;6.640;2023-03-07T08:20:03;3.10;99.90
51950;DHT22;37974;53.218;6.640;2023-03-07T08:22:33;3.10;99.90
51950;DHT22;37974;53.218;6.640;2023-03-07T08:24:59;3.40;99.90
51950;DHT22;37974;53.218;6.640;2023-03-07T08:27:27;3.30;99.90
51950;DHT22;37974;53.218;6.640;2023-03-07T08:29:52;3.30;99.90
51950;DHT22;37974;53.218;6.640;2023-03-07T08:32:18;3.40;99.90
51950;DHT22;37974;53.218;6.640;2023-03-07T08:34:44;3.50;99.90
51950;DHT22;37974;53.218;6.640;2023-03-07T08:37:09;3.40;99.90
51950;DHT22;37974;53.218;6.640;2023-03-07T08:39:35;3.40;99.90
51950;DHT22;37974;53.218;6.640;2023-03-07T08:42:01;3.50;99.90
51950;DHT22;37974;53.218;6.640;2023-03-07T08:44:27;3.70;99.90
51950;DHT22;37974;53.218;6.640;2023-03-07T08:46:52;3.40;99.90
51950;DHT22;37974;53.218;6.640;2023-03-07T08:49:18;3.40;99.90
51950;DHT22;37974;53.218;6.640;2023-03-07T08:51:46;3.00;99.90
51950;DHT22;37974;53.218;6.640;2023-03-07T08:54:12;2.80;99.90
51950;DHT22;37974;53.218;6.640;2023-03-07T08:56:38;3.10;99.90
51950;DHT22;37974;53.218;6.640;2023-03-07T08:59:04;2.90;99.90
51950;DHT22;37974;53.218;6.640;2023-03-07T09:01:30;3.00;99.90
51950;DHT22;37974;53.218;6.640;2023-03-07T09:03:56;3.10;99.90
51950;DHT22;37974;53.218;6.640;2023-03-07T09:06:21;3.80;99.90
51950;DHT22;37974;53.218;6.640;2023-03-07T09:08:48;3.50;99.90
51950;DHT22;37974;53.218;6.640;2023-03-07T09:11:15;3.30;99.90
51950;DHT22;37974;53.218;6.640;2023-03-07T09:13:42;3.40;99.90
51950;DHT22;37974;53.218;6.640;2023-03-07T09:16:08;3.40;99.90
51950;DHT22;37974;53.218;6.640;2023-03-07T09:18:33;3.40;99.90
51950;DHT22;37974;53.218;6.640;2023-03-07T09:21:05;4.00;99.90
51950;DHT22;37974;53.218;6.640;2023-03-07T09:23:31;3.40;99.90
51950;DHT22;37974;53.218;6.640;2023-03-07T09:25:59;3.40;99.90
51950;DHT22;37974;53.218;6.640;2023-03-07T09:28:25;3.40;99.90
51950;DHT22;37974;53.218;6.640;2023-03-07T09:30:50;3.70;99.90
51950;DHT22;37974;53.218;6.640;2023-03-07T09:33:16;4.00;99.90
51950;DHT22;37974;53.218;6.640;2023-03-07T09:35:42;3.40;99.90
51950;DHT22;37974;53.218;6.640;2023-03-07T09:38:07;4.20;99.90
51950;DHT22;37974;53.218;6.640;2023-03-07T09:40:35;3.40;99.90
51950;DHT22;37974;53.218;6.640;2023-03-07T09:43:22;4.00;99.90
51950;DHT22;37974;53.218;6.640;2023-03-07T09:46:09;3.40;99.90
51950;DHT22;37974;53.218;6.640;2023-03-07T09:48:52;3.50;99.90
51950;DHT22;37974;53.218;6.640;2023-03-07T09:51:20;3.40;99.90
51950;DHT22;37974;53.218;6.640;2023-03-07T09:53:52;3.40;99.90
51950;DHT22;37974;53.218;6.640;2023-03-07T09:56:28;3.40;99.90
51950;DHT22;37974;53.218;6.640;2023-03-07T09:59:01;3.30;99.90
51950;DHT22;37974;53.218;6.640;2023-03-07T10:01:29;3.30;99.90
51950;DHT22;37974;53.218;6.640;2023-03-07T10:04:02;3.30;99.90
51950;DHT22;37974;53.218;6.640;2023-03-07T10:06:36;3.30;99.90
51950;DHT22;37974;53.218;6.640;2023-03-07T10:09:04;3.30;99.90
51950;DHT22;37974;53.218;6.640;2023-03-07T10:17:41;3.30;99.90
51950;DHT22;37974;53.218;6.640;2023-03-07T10:22:47;3.50;99.90
51950;DHT22;37974;53.218;6.640;2023-03-07T10:30:35;3.40;99.90
51950;DHT22;37974;53.218;6.640;2023-03-07T10:33:02;3.50;99.90
51950;DHT22;37974;53.218;6.640;2023-03-07T10:35:39;3.50;99.90
51950;DHT22;37974;53.218;6.640;2023-03-07T10:38:18;3.90;99.90
51950;DHT22;37974;53.218;6.640;2023-03-07T10:40:54;3.60;99.90
51950;DHT22;37974;53.218;6.640;2023-03-07T10:43:24;3.80;99.90
51950;DHT22;37974;53.218;6.640;2023-03-07T10:46:14;3.40;99.90
51950;DHT22;37974;53.218;6.640;2023-03-07T10:48:44;3.50;99.90
51950;DHT22;37974;53.218;6.640;2023-03-07T10:54:20;3.50;99.90
51950;DHT22;37974;53.218;6.640;2023-03-07T10:57:07;3.60;99.90
51950;DHT22;37974;53.218;6.640;2023-03-07T10:59:36;3.70;99.90
51950;DHT22;37974;53.218;6.640;2023-03-07T11:02:17;3.80;99.90
51950;DHT22;37974;53.218;6.640;2023-03-07T11:04:48;4.10;99.90
51950;DHT22;37974;53.218;6.640;2023-03-07T11:07:29;4.20;99.90
51950;DHT22;37974;53.218;6.640;2023-03-07T11:09:57;4.50;99.90
51950;DHT22;37974;53.218;6.640;2023-03-07T11:12:25;3.90;99.90
51950;DHT22;37974;53.218;6.640;2023-03-07T11:14:53;3.90;99.90
51950;DHT22;37974;53.218;6.640;2023-03-07T11:17:26;4.30;99.90
51950;DHT22;37974;53.218;6.640;2023-03-07T11:19:54;4.20;99.90
51950;DHT22;37974;53.218;6.640;2023-03-07T11:22:27;4.40;99.90
51950;DHT22;37974;53.218;6.640;2023-03-07T11:24:58;4.60;99.90
51950;DHT22;37974;53.218;6.640;2023-03-07T11:27:38;4.90;99.90
51950;DHT22;37974;53.218;6.640;2023-03-07T11:30:06;5.20;99.90
51950;DHT22;37974;53.218;6.640;2023-03-07T11:32:34;5.50;99.90
51950;DHT22;37974;53.218;6.640;2023-03-07T11:35:06;5.60;99.90
51950;DHT22;37974;53.218;6.640;2023-03-07T11:38:06;5.50;99.90
51950;DHT22;37974;53.218;6.640;2023-03-07T11:40:46;5.10;99.90
51950;DHT22;37974;53.218;6.640;2023-03-07T11:43:21;4.50;99.90
51950;DHT22;37974;53.218;6.640;2023-03-07T11:48:31;3.80;99.90
51950;DHT22;37974;53.218;6.640;2023-03-07T11:51:01;3.70;99.90
51950;DHT22;37974;53.218;6.640;2023-03-07T11:53:40;3.80;99.90
51950;DHT22;37974;53.218;6.640;2023-03-07T11:56:21;3.60;99.90
51950;DHT22;37974;53.218;6.640;2023-03-07T11:58:54;3.60;99.90
51950;DHT22;37974;53.218;6.640;2023-03-07T12:09:17;3.70;99.90
51950;DHT22;37974;53.218;6.640;2023-03-07T12:14:32;4.00;99.90
51950;DHT22;37974;53.218;6.640;2023-03-07T12:17:16;4.10;99.90
51950;DHT22;37974;53.218;6.640;2023-03-07T12:22:27;4.30;99.90
51950;DHT22;37974;53.218;6.640;2023-03-07T12:29:58;4.60;99.90
51950;DHT22;37974;53.218;6.640;2023-03-07T12:32:27;4.70;99.90
51950;DHT22;37974;53.218;6.640;2023-03-07T12:34:57;4.80;99.90
51950;DHT22;37974;53.218;6.640;2023-03-07T12:37:32;5.10;99.90
51950;DHT22;37974;53.218;6.640;2023-03-07T12:40:04;5.40;99.90
51950;DHT22;37974;53.218;6.640;2023-03-07T12:42:37;5.20;99.90
51950;DHT22;37974;53.218;6.640;2023-03-07T12:50:19;5.30;99.90
51950;DHT22;37974;53.218;6.640;2023-03-07T12:53:02;5.40;99.90
51950;DHT22;37974;53.218;6.640;2023-03-07T12:55:44;5.50;99.90
51950;DHT22;37974;53.218;6.640;2023-03-07T12:58:30;5.60;99.90
51950;DHT22;37974;53.218;6.640;2023-03-07T13:01:03;5.70;99.90
51950;DHT22;37974;53.218;6.640;2023-03-07T13:03:54;5.80;99.90
51950;DHT22;37974;53.218;6.640;2023-03-07T13:06:21;5.80;99.90
51950;DHT22;37974;53.218;6.640;2023-03-07T13:08:50;6.20;99.90
51950;DHT22;37974;53.218;6.640;2023-03-07T13:11:19;5.90;99.90
51950;DHT22;37974;53.218;6.640;2023-03-07T13:13:49;5.80;99.90
51950;DHT22;37974;53.218;6.640;2023-03-07T13:16:37;6.10;99.90
51950;DHT22;37974;53.218;6.640;2023-03-07T13:24:40;5.50;99.90
51950;DHT22;37974;53.218;6.640;2023-03-07T13:27:15;5.50;99.90
51950;DHT22;37974;53.218;6.640;2023-03-07T13:30:02;5.50;99.90
51950;DHT22;37974;53.218;6.640;2023-03-07T13:51:07;4.40;99.90
51950;DHT22;37974;53.218;6.640;2023-03-07T13:53:38;4.30;99.90
51950;DHT22;37974;53.218;6.640;2023-03-07T13:58:37;4.20;99.90
51950;DHT22;37974;53.218;6.640;2023-03-07T14:01:17;4.10;99.90
51950;DHT22;37974;53.218;6.640;2023-03-07T14:03:44;4.10;99.90
51950;DHT22;37974;53.218;6.640;2023-03-07T14:08:46;4.10;99.90
51950;DHT22;37974;53.218;6.640;2023-03-07T14:11:40;4.10;99.90
51950;DHT22;37974;53.218;6.640;2023-03-07T14:14:13;4.10;99.90
51950;DHT22;37974;53.218;6.640;2023-03-07T14:16:56;4.20;99.90
51950;DHT22;37974;53.218;6.640;2023-03-07T14:19:39;4.40;99.90
51950;DHT22;37974;53.218;6.640;2023-03-07T14:22:20;4.60;99.90
51950;DHT22;37974;53.218;6.640;2023-03-07T14:27:24;4.60;99.90
51950;DHT22;37974;53.218;6.640;2023-03-07T14:29:52;4.80;99.90
51950;DHT22;37974;53.218;6.640;2023-03-07T14:34:48;4.90;99.90
51950;DHT22;37974;53.218;6.640;2023-03-07T14:37:20;5.00;99.90
51950;DHT22;37974;53.218;6.640;2023-03-07T14:40:05;5.10;99.90
51950;DHT22;37974;53.218;6.640;2023-03-07T14:45:31;4.80;99.90
51950;DHT22;37974;53.218;6.640;2023-03-07T14:48:31;4.60;99.90
51950;DHT22;37974;53.218;6.640;2023-03-07T14:51:05;4.50;99.90
51950;DHT22;37974;53.218;6.640;2023-03-07T14:53:35;4.50;99.90
51950;DHT22;37974;53.218;6.640;2023-03-07T14:56:06;4.10;99.90
51950;DHT22;37974;53.218;6.640;2023-03-07T14:58:35;4.00;99.90
51950;DHT22;37974;53.218;6.640;2023-03-07T15:01:04;3.90;99.90
51950;DHT22;37974;53.218;6.640;2023-03-07T15:03:30;3.90;99.90
51950;DHT22;37974;53.218;6.640;2023-03-07T15:05:58;3.90;99.90
51950;DHT22;37974;53.218;6.640;2023-03-07T15:08:27;3.90;99.90
51950;DHT22;37974;53.218;6.640;2023-03-07T15:11:04;3.90;99.90
51950;DHT22;37974;53.218;6.640;2023-03-07T15:13:38;3.80;99.90
51950;DHT22;37974;53.218;6.640;2023-03-07T15:16:11;3.80;99.90
51950;DHT22;37974;53.218;6.640;2023-03-07T15:18:44;3.80;99.90
51950;DHT22;37974;53.218;6.640;2023-03-07T15:21:16;3.60;99.90
51950;DHT22;37974;53.218;6.640;2023-03-07T15:23:51;3.60;99.90
51950;DHT22;37974;53.218;6.640;2023-03-07T15:26:18;3.50;99.90
51950;DHT22;37974;53.218;6.640;2023-03-07T15:28:46;3.50;99.90
51950;DHT22;37974;53.218;6.640;2023-03-07T15:31:13;3.40;99.90
51950;DHT22;37974;53.218;6.640;2023-03-07T15:33:40;3.10;99.90
51950;DHT22;37974;53.218;6.640;2023-03-07T15:36:15;2.90;99.90
51950;DHT22;37974;53.218;6.640;2023-03-07T15:38:45;2.80;99.90
51950;DHT22;37974;53.218;6.640;2023-03-07T15:41:32;3.20;99.90
51950;DHT22;37974;53.218;6.640;2023-03-07T15:46:30;3.00;99.90
51950;DHT22;37974;53.218;6.640;2023-03-07T15:48:57;3.10;99.90
51950;DHT22;37974;53.218;6.640;2023-03-07T15:51:25;3.20;99.90
51950;DHT22;37974;53.218;6.640;2023-03-07T15:54:13;3.20;99.90
51950;DHT22;37974;53.218;6.640;2023-03-07T15:56:44;3.30;99.90
51950;DHT22;37974;53.218;6.640;2023-03-07T15:59:21;3.30;99.90
51950;DHT22;37974;53.218;6.640;2023-03-07T16:01:49;3.30;99.90
51950;DHT22;37974;53.218;6.640;2023-03-07T16:06:59;3.70;99.90
51950;DHT22;37974;53.218;6.640;2023-03-07T16:09:25;3.30;99.90
51950;DHT22;37974;53.218;6.640;2023-03-07T16:11:51;3.30;99.90
51950;DHT22;37974;53.218;6.640;2023-03-07T16:14:27;3.30;99.90
51950;DHT22;37974;53.218;6.640;2023-03-07T16:17:01;3.30;99.90
51950;DHT22;37974;53.218;6.640;2023-03-07T16:19:27;3.30;99.90
51950;DHT22;37974;53.218;6.640;2023-03-07T16:21:53;3.30;99.90
51950;DHT22;37974;53.218;6.640;2023-03-07T16:24:19;3.50;99.90
51950;DHT22;37974;53.218;6.640;2023-03-07T16:26:45;3.30;99.90
51950;DHT22;37974;53.218;6.640;2023-03-07T16:29:16;3.30;99.90
51950;DHT22;37974;53.218;6.640;2023-03-07T16:31:43;3.20;99.90
51950;DHT22;37974;53.218;6.640;2023-03-07T16:34:14;3.30;99.90
51950;DHT22;37974;53.218;6.640;2023-03-07T16:36:40;3.10;99.90
51950;DHT22;37974;53.218;6.640;2023-03-07T16:39:08;3.00;99.90
51950;DHT22;37974;53.218;6.640;2023-03-07T16:41:36;2.90;99.90
51950;DHT22;37974;53.218;6.640;2023-03-07T16:44:03;2.80;99.90
51950;DHT22;37974;53.218;6.640;2023-03-07T16:46:29;2.80;99.90
51950;DHT22;37974;53.218;6.640;2023-03-07T16:48:55;2.80;99.90
51950;DHT22;37974;53.218;6.640;2023-03-07T16:51:22;2.80;99.90
51950;DHT22;37974;53.218;6.640;2023-03-07T16:53:50;2.60;99.90
51950;DHT22;37974;53.218;6.640;2023-03-07T16:56:29;3.10;99.90
51950;DHT22;37974;53.218;6.640;2023-03-07T16:58:58;2.50;99.90
51950;DHT22;37974;53.218;6.640;2023-03-07T17:01:24;2.40;99.90
51950;DHT22;37974;53.218;6.640;2023-03-07T17:03:50;2.40;99.90
51950;DHT22;37974;53.218;6.640;2023-03-07T17:06:16;2.30;99.90
51950;DHT22;37974;53.218;6.640;2023-03-07T17:08:43;2.70;99.90
51950;DHT22;37974;53.218;6.640;2023-03-07T17:11:17;2.20;99.90
51950;DHT22;37974;53.218;6.640;2023-03-07T17:13:44;2.10;99.90
51950;DHT22;37974;53.218;6.640;2023-03-07T17:16:13;2.50;99.90
51950;DHT22;37974;53.218;6.640;2023-03-07T17:18:40;2.40;99.90
51950;DHT22;37974;53.218;6.640;2023-03-07T17:21:05;1.90;99.90
51950;DHT22;37974;53.218;6.640;2023-03-07T17:23:31;2.00;99.90
51950;DHT22;37974;53.218;6.640;2023-03-07T17:25:57;1.80;99.90
51950;DHT22;37974;53.218;6.640;2023-03-07T17:28:23;1.70;99.90